PWSweather.com
Personal Weather Stations
Station Observations
WESTON01
WestonSuperMareGB BS22 8RT

WestonSuperMareGB BS22 8RT

Lat: 51.351508, Lon: -2.933373

Elevation: 15

Station Type: Fine Offset WH1080

http://www.westonweather.co.uk

High Low Average
Temperature 58.4°F14.7°F 51.2°F10.7°F 55.0°F12.8°F
Dew Point 55.0°F12.8°F 44.0°F6.7°F 49.1°F9.5°F
Winds 26.2 mph WSW42.2 mph WSW Calm Calm 11.5 mph 18.5 mph
Wind Gusts 32.4 mph52.1 mph -- 15.9 mph25.6 mph
Humidity 92% 61% 81%
Pressure 29.77 in1008.10 in 29.36 in994.20 in -
Precipitation 1.40 in35.60 in - -
Hour Temp Dew Point Humidity Winds Wind Gusts Pressure Precip Precip Rate Daily Precip Total
12:00 AM 53.2°F11.8°C 50.6°F10.3°C 91% 10.8 mph SSW17.4 kmh SSW 13.4 mph21.6 kmh 29.36 in994.2 mb 0.00 in0.0 mm 0.00 in0.0 mm 0.00 in0.0 mm
12:05 AM 53.2°F11.8°C 50.6°F10.3°C 91% 9.7 mph SSW15.6 kmh SSW 12.8 mph20.6 kmh 29.36 in994.2 mb 0.00 in0.0 mm 0.00 in0.0 mm 0.00 in0.0 mm
12:10 AM 53.2°F11.8°C 50.6°F10.3°C 91% 7.0 mph SW11.3 kmh SW 7.7 mph12.4 kmh 29.36 in994.2 mb 0.00 in0.0 mm 0.00 in0.0 mm 0.00 in0.0 mm
12:15 AM 53.2°F11.8°C 50.6°F10.3°C 91% 9.1 mph SSW14.6 kmh SSW 14.0 mph22.5 kmh 29.36 in994.2 mb 0.00 in0.0 mm 0.00 in0.0 mm 0.00 in0.0 mm
12:20 AM 53.2°F11.8°C 50.9°F10.5°C 92% 9.5 mph SSW15.3 kmh SSW 14.0 mph22.5 kmh 29.36 in994.2 mb 0.00 in0.0 mm 0.00 in0.0 mm 0.00 in0.0 mm
12:25 AM 53.3°F11.8°C 51.1°F10.6°C 92% 7.4 mph SSW11.9 kmh SSW 11.3 mph18.2 kmh 29.36 in994.2 mb 0.00 in0.0 mm 0.00 in0.0 mm 0.00 in0.0 mm
12:30 AM 53.3°F11.8°C 51.1°F10.6°C 92% 8.9 mph SSW14.3 kmh SSW 15.8 mph25.4 kmh 29.36 in994.2 mb 0.00 in0.0 mm 0.00 in0.0 mm 0.00 in0.0 mm
12:35 AM 53.3°F11.8°C 51.1°F10.6°C 92% 10.0 mph SSW16.1 kmh SSW 15.8 mph25.4 kmh 29.36 in994.2 mb 0.00 in0.0 mm 0.00 in0.0 mm 0.00 in0.0 mm
12:40 AM 53.3°F11.8°C 51.1°F10.6°C 92% 11.1 mph S17.9 kmh S 16.7 mph26.9 kmh 29.36 in994.2 mb 0.00 in0.0 mm 0.00 in0.0 mm 0.00 in0.0 mm
12:45 AM 53.3°F11.8°C 51.1°F10.6°C 92% 9.2 mph S14.8 kmh S 16.7 mph26.9 kmh 29.36 in994.2 mb 0.00 in0.0 mm 0.00 in0.0 mm 0.00 in0.0 mm
12:50 AM 53.3°F11.8°C 51.1°F10.6°C 92% 7.4 mph SSW11.9 kmh SSW 16.4 mph26.4 kmh 29.36 in994.2 mb 0.00 in0.0 mm 0.00 in0.0 mm 0.00 in0.0 mm
12:55 AM 53.5°F11.9°C 51.2°F10.7°C 92% 7.3 mph WSW11.7 kmh WSW 13.7 mph22.0 kmh 29.36 in994.2 mb 0.00 in0.0 mm 0.00 in0.0 mm 0.00 in0.0 mm
01:00 AM 54.6°F12.6°C 52.3°F11.3°C 92% 11.3 mph W18.2 kmh W 18.1 mph29.1 kmh 29.36 in994.2 mb 0.00 in0.0 mm 0.00 in0.0 mm 0.00 in0.0 mm
01:05 AM 54.8°F12.7°C 52.5°F11.4°C 92% 16.6 mph W26.7 kmh W 19.6 mph31.5 kmh 29.36 in994.2 mb 0.00 in0.0 mm 0.00 in0.0 mm 0.00 in0.0 mm
01:10 AM 55.3°F12.9°C 53.0°F11.7°C 92% 17.9 mph W28.8 kmh W 22.3 mph35.9 kmh 29.36 in994.2 mb 0.00 in0.0 mm 0.00 in0.0 mm 0.00 in0.0 mm
01:15 AM 55.7°F13.2°C 53.4°F11.9°C 92% 18.1 mph W29.1 kmh W 22.3 mph35.9 kmh 29.36 in994.2 mb 0.00 in0.0 mm 0.00 in0.0 mm 0.00 in0.0 mm
01:20 AM 55.8°F13.2°C 53.6°F12.0°C 92% 17.9 mph WSW28.8 kmh WSW 22.3 mph35.9 kmh 29.36 in994.2 mb 0.00 in0.0 mm 0.00 in0.0 mm 0.00 in0.0 mm
01:25 AM 55.8°F13.2°C 53.6°F12.0°C 92% 15.2 mph W24.5 kmh W 18.1 mph29.1 kmh 29.36 in994.2 mb 0.00 in0.0 mm 0.00 in0.0 mm 0.00 in0.0 mm
01:30 AM 55.8°F13.2°C 53.6°F12.0°C 92% 14.6 mph W23.5 kmh W 18.1 mph29.1 kmh 29.39 in995.3 mb 0.00 in0.0 mm 0.00 in0.0 mm 0.00 in0.0 mm
01:35 AM 56.0°F13.3°C 53.7°F12.1°C 92% 13.1 mph W21.1 kmh W 18.1 mph29.1 kmh 29.39 in995.3 mb 0.00 in0.0 mm 0.00 in0.0 mm 0.00 in0.0 mm
01:40 AM 56.0°F13.3°C 53.4°F11.9°C 91% 13.9 mph WSW22.4 kmh WSW 17.0 mph27.4 kmh 29.39 in995.3 mb 0.00 in0.0 mm 0.00 in0.0 mm 0.00 in0.0 mm
01:45 AM 56.0°F13.3°C 53.4°F11.9°C 91% 15.0 mph W24.1 kmh W 17.0 mph27.4 kmh 29.39 in995.3 mb 0.00 in0.0 mm 0.00 in0.0 mm 0.00 in0.0 mm
01:50 AM 56.2°F13.4°C 53.6°F12.0°C 91% 20.0 mph WSW32.2 kmh WSW 32.4 mph52.1 kmh 29.39 in995.3 mb 0.00 in0.0 mm 0.00 in0.0 mm 0.00 in0.0 mm
01:55 AM 56.2°F13.4°C 53.6°F12.0°C 91% 20.8 mph WSW33.5 kmh WSW 32.4 mph52.1 kmh 29.39 in995.3 mb 0.00 in0.0 mm 0.00 in0.0 mm 0.00 in0.0 mm
02:00 AM 56.2°F13.4°C 53.6°F12.0°C 91% 10.4 mph NW16.7 kmh NW 10.4 mph16.7 kmh 29.39 in995.3 mb 0.00 in0.0 mm 0.00 in0.0 mm 0.00 in0.0 mm
02:05 AM 56.2°F13.4°C 53.6°F12.0°C 91% 12.9 mph WNW20.8 kmh WNW 22.6 mph36.4 kmh 29.39 in995.3 mb 0.00 in0.0 mm 0.00 in0.0 mm 0.00 in0.0 mm
02:10 AM 56.2°F13.4°C 53.6°F12.0°C 91% 17.3 mph W27.8 kmh W 22.6 mph36.4 kmh 29.39 in995.3 mb 0.00 in0.0 mm 0.00 in0.0 mm 0.00 in0.0 mm
02:15 AM 56.2°F13.4°C 53.6°F12.0°C 91% 18.3 mph W29.5 kmh W 22.6 mph36.4 kmh 29.41 in995.9 mb 0.00 in0.0 mm 0.00 in0.0 mm 0.00 in0.0 mm
02:20 AM 56.0°F13.3°C 53.1°F11.7°C 90% 14.6 mph WNW23.5 kmh WNW 17.6 mph28.3 kmh 29.41 in995.9 mb 0.00 in0.0 mm 0.00 in0.0 mm 0.00 in0.0 mm
02:25 AM 55.8°F13.2°C 53.3°F11.8°C 91% 13.8 mph NW22.2 kmh NW 14.0 mph22.5 kmh 29.41 in995.9 mb 0.00 in0.0 mm 0.00 in0.0 mm 0.00 in0.0 mm
02:30 AM 55.8°F13.2°C 53.3°F11.8°C 91% 13.8 mph NW22.2 kmh NW 14.0 mph22.5 kmh 29.41 in995.9 mb 0.00 in0.0 mm 0.00 in0.0 mm 0.00 in0.0 mm
02:35 AM 55.7°F13.2°C 52.8°F11.6°C 90% 18.4 mph WNW29.6 kmh WNW 23.2 mph37.3 kmh 29.41 in995.9 mb 0.00 in0.0 mm 0.00 in0.0 mm 0.00 in0.0 mm
02:40 AM 55.7°F13.2°C 52.8°F11.6°C 90% 20.7 mph W33.3 kmh W 23.2 mph37.3 kmh 29.41 in995.9 mb 0.00 in0.0 mm 0.00 in0.0 mm 0.00 in0.0 mm
02:45 AM 55.7°F13.2°C 52.8°F11.6°C 90% 22.3 mph SW35.9 kmh SW 22.3 mph35.9 kmh 29.45 in997.3 mb 0.00 in0.0 mm 0.00 in0.0 mm 0.00 in0.0 mm
02:50 AM 55.7°F13.2°C 52.8°F11.6°C 90% 22.3 mph SW35.9 kmh SW 22.3 mph35.9 kmh 29.45 in997.3 mb 0.00 in0.0 mm 0.00 in0.0 mm 0.00 in0.0 mm
02:55 AM 55.7°F13.2°C 53.1°F11.7°C 91% 22.3 mph SW35.9 kmh SW 22.3 mph35.9 kmh 29.45 in997.3 mb 0.00 in0.0 mm 0.00 in0.0 mm 0.00 in0.0 mm
03:00 AM 55.7°F13.2°C 53.1°F11.7°C 91% 11.8 mph WNW19.0 kmh WNW 14.0 mph22.5 kmh 29.47 in998.0 mb 0.00 in0.0 mm 0.00 in0.0 mm 0.00 in0.0 mm
03:05 AM 55.5°F13.1°C 52.9°F11.6°C 91% 11.0 mph WNW17.7 kmh WNW 14.0 mph22.5 kmh 29.47 in998.0 mb 0.00 in0.0 mm 0.00 in0.0 mm 0.00 in0.0 mm
03:10 AM 55.5°F13.1°C 52.9°F11.6°C 91% 9.5 mph W15.3 kmh W 9.5 mph15.3 kmh 29.47 in998.0 mb 0.00 in0.0 mm 0.00 in0.0 mm 0.00 in0.0 mm
03:15 AM 55.3°F12.9°C 52.7°F11.5°C 91% 9.0 mph WNW14.5 kmh WNW 9.5 mph15.3 kmh 29.47 in998.0 mb 0.00 in0.0 mm 0.00 in0.0 mm 0.00 in0.0 mm
03:20 AM 55.3°F12.9°C 52.7°F11.5°C 91% 11.2 mph WNW18.0 kmh WNW 14.0 mph22.5 kmh 29.47 in998.0 mb 0.00 in0.0 mm 0.00 in0.0 mm 0.00 in0.0 mm
03:25 AM 55.1°F12.8°C 52.5°F11.4°C 91% 13.0 mph W20.9 kmh W 14.0 mph22.5 kmh 29.47 in998.0 mb 0.00 in0.0 mm 0.00 in0.0 mm 0.00 in0.0 mm
03:30 AM 55.1°F12.8°C 52.5°F11.4°C 91% 14.0 mph W22.5 kmh W 14.0 mph22.5 kmh 29.47 in998.0 mb 0.00 in0.0 mm 0.00 in0.0 mm 0.00 in0.0 mm
03:35 AM 55.1°F12.8°C 52.5°F11.4°C 91% 14.4 mph WNW23.2 kmh WNW 16.4 mph26.4 kmh 29.47 in998.0 mb 0.00 in0.0 mm 0.00 in0.0 mm 0.00 in0.0 mm
03:40 AM 55.0°F12.8°C 52.4°F11.3°C 91% 15.9 mph NW25.6 kmh NW 16.4 mph26.4 kmh 29.47 in998.0 mb 0.00 in0.0 mm 0.00 in0.0 mm 0.00 in0.0 mm
03:45 AM 54.8°F12.7°C 52.2°F11.2°C 91% 16.1 mph WNW25.9 kmh WNW 16.4 mph26.4 kmh 29.50 in999.0 mb 0.00 in0.0 mm 0.00 in0.0 mm 0.00 in0.0 mm
03:50 AM 54.8°F12.7°C 52.2°F11.2°C 91% 15.9 mph WNW25.6 kmh WNW 16.4 mph26.4 kmh 29.50 in999.0 mb 0.00 in0.0 mm 0.00 in0.0 mm 0.00 in0.0 mm
03:55 AM 54.2°F12.3°C 51.7°F10.9°C 91% 18.9 mph WNW30.4 kmh WNW 26.2 mph42.2 kmh 29.50 in999.0 mb 0.00 in0.0 mm 0.00 in0.0 mm 0.00 in0.0 mm
04:00 AM 54.0°F12.2°C 51.5°F10.8°C 91% 22.6 mph W36.4 kmh W 26.2 mph42.2 kmh 29.50 in999.0 mb 0.00 in0.0 mm 0.00 in0.0 mm 0.00 in0.0 mm
04:05 AM 53.7°F12.1°C 51.1°F10.6°C 91% 26.2 mph WSW42.2 kmh WSW 26.2 mph42.2 kmh 29.50 in999.0 mb 0.00 in0.0 mm 0.00 in0.0 mm 0.00 in0.0 mm
04:10 AM 53.7°F12.1°C 51.1°F10.6°C 91% 23.8 mph WNW38.3 kmh WNW 26.2 mph42.2 kmh 29.50 in999.0 mb 0.00 in0.0 mm 0.00 in0.0 mm 0.00 in0.0 mm
04:15 AM 53.7°F12.1°C 51.1°F10.6°C 91% 23.5 mph NW37.8 kmh NW 26.2 mph42.2 kmh 29.53 in1000.0 mb 0.00 in0.0 mm 0.00 in0.0 mm 0.00 in0.0 mm
04:20 AM 53.5°F11.9°C 50.6°F10.3°C 90% 20.3 mph W32.7 kmh W 24.1 mph38.8 kmh 29.53 in1000.0 mb 0.00 in0.0 mm 0.00 in0.0 mm 0.00 in0.0 mm
04:25 AM 53.3°F11.8°C 50.5°F10.3°C 90% 16.5 mph W26.6 kmh W 19.0 mph30.6 kmh 29.53 in1000.0 mb 0.00 in0.0 mm 0.00 in0.0 mm 0.00 in0.0 mm
04:30 AM 53.3°F11.8°C 50.5°F10.3°C 90% 12.7 mph WNW20.4 kmh WNW 14.0 mph22.5 kmh 29.53 in1000.0 mb 0.00 in0.0 mm 0.00 in0.0 mm 0.00 in0.0 mm
04:35 AM 53.2°F11.8°C 50.3°F10.2°C 90% 11.6 mph NW18.7 kmh NW 11.6 mph18.7 kmh 29.53 in1000.0 mb 0.00 in0.0 mm 0.00 in0.0 mm 0.00 in0.0 mm
04:40 AM 53.0°F11.7°C 50.1°F10.1°C 90% 13.1 mph WNW21.1 kmh WNW 17.9 mph28.8 kmh 29.53 in1000.0 mb 0.00 in0.0 mm 0.00 in0.0 mm 0.00 in0.0 mm
04:45 AM 52.8°F11.6°C 50.2°F10.1°C 91% 14.7 mph WNW23.7 kmh WNW 17.9 mph28.8 kmh 29.56 in1001.0 mb 0.00 in0.0 mm 0.00 in0.0 mm 0.00 in0.0 mm
04:50 AM 52.8°F11.6°C 50.2°F10.1°C 91% 18.3 mph WNW29.5 kmh WNW 22.9 mph36.9 kmh 29.56 in1001.0 mb 0.00 in0.0 mm 0.00 in0.0 mm 0.00 in0.0 mm
04:55 AM 52.6°F11.4°C 50.1°F10.1°C 91% 20.9 mph WNW33.6 kmh WNW 22.9 mph36.9 kmh 29.56 in1001.0 mb 0.00 in0.0 mm 0.00 in0.0 mm 0.00 in0.0 mm
05:00 AM 52.6°F11.4°C 50.1°F10.1°C 91% 18.1 mph WNW29.1 kmh WNW 22.9 mph36.9 kmh 29.56 in1001.0 mb 0.00 in0.0 mm 0.00 in0.0 mm 0.00 in0.0 mm
05:05 AM 52.4°F11.3°C 49.9°F9.9°C 91% 17.0 mph W27.4 kmh W 17.3 mph27.8 kmh 29.56 in1001.0 mb 0.00 in0.0 mm 0.00 in0.0 mm 0.00 in0.0 mm
05:10 AM 52.3°F11.3°C 49.7°F9.8°C 91% 17.2 mph W27.7 kmh W 17.3 mph27.8 kmh 29.56 in1001.0 mb 0.00 in0.0 mm 0.00 in0.0 mm 0.00 in0.0 mm
05:15 AM 52.1°F11.2°C 49.5°F9.7°C 91% 17.3 mph WSW27.8 kmh WSW 17.3 mph27.8 kmh 29.56 in1001.0 mb 0.00 in0.0 mm 0.00 in0.0 mm 0.00 in0.0 mm
05:20 AM 52.1°F11.2°C 49.5°F9.7°C 91% 17.3 mph WSW27.8 kmh WSW 17.3 mph27.8 kmh 29.56 in1001.0 mb 0.00 in0.0 mm 0.00 in0.0 mm 0.00 in0.0 mm
05:25 AM 52.1°F11.2°C 49.5°F9.7°C 91% Calm Calm -- 29.56 in1001.0 mb 0.00 in0.0 mm 0.00 in0.0 mm 0.00 in0.0 mm
05:35 AM 52.1°F11.2°C 49.5°F9.7°C 91% 12.4 mph WNW20.0 kmh WNW 30.3 mph48.8 kmh 29.59 in1002.0 mb 0.00 in0.0 mm 0.00 in0.0 mm 0.00 in0.0 mm
05:40 AM 51.9°F11.1°C 49.3°F9.6°C 91% 21.5 mph WNW34.6 kmh WNW 30.3 mph48.8 kmh 29.59 in1002.0 mb 0.00 in0.0 mm 0.00 in0.0 mm 0.00 in0.0 mm
05:45 AM 51.9°F11.1°C 49.3°F9.6°C 91% 19.3 mph NW31.1 kmh NW 19.3 mph31.1 kmh 29.59 in1002.0 mb 0.00 in0.0 mm 0.00 in0.0 mm 0.00 in0.0 mm
05:50 AM 51.9°F11.1°C 49.3°F9.6°C 91% 23.3 mph NW37.5 kmh NW 25.9 mph41.7 kmh 29.59 in1002.0 mb 0.00 in0.0 mm 0.00 in0.0 mm 0.00 in0.0 mm
05:55 AM 51.9°F11.1°C 49.3°F9.6°C 91% 25.5 mph NW41.0 kmh NW 25.9 mph41.7 kmh 29.59 in1002.0 mb 0.00 in0.0 mm 0.00 in0.0 mm 0.00 in0.0 mm
06:00 AM 51.9°F11.1°C 49.0°F9.4°C 90% 22.4 mph WNW36.0 kmh WNW 25.9 mph41.7 kmh 29.59 in1002.0 mb 0.00 in0.0 mm 0.00 in0.0 mm 0.00 in0.0 mm
06:05 AM 51.9°F11.1°C 49.0°F9.4°C 90% 16.1 mph WSW25.9 kmh WSW 25.9 mph41.7 kmh 29.59 in1002.0 mb 0.00 in0.0 mm 0.00 in0.0 mm 0.00 in0.0 mm
06:10 AM 51.9°F11.1°C 49.0°F9.4°C 90% 16.5 mph W26.6 kmh W 22.3 mph35.9 kmh 29.59 in1002.0 mb 0.00 in0.0 mm 0.00 in0.0 mm 0.00 in0.0 mm
06:15 AM 51.9°F11.1°C 49.0°F9.4°C 90% 17.6 mph WNW28.3 kmh WNW 22.9 mph36.9 kmh 29.62 in1003.0 mb 0.00 in0.0 mm 0.00 in0.0 mm 0.00 in0.0 mm
06:20 AM 51.9°F11.1°C 48.7°F9.3°C 89% 16.8 mph WNW27.0 kmh WNW 23.2 mph37.3 kmh 29.62 in1003.0 mb 0.00 in0.0 mm 0.00 in0.0 mm 0.00 in0.0 mm
06:25 AM 51.9°F11.1°C 48.7°F9.3°C 89% 16.4 mph WNW26.4 kmh WNW 30.0 mph48.3 kmh 29.62 in1003.0 mb 0.00 in0.0 mm 0.00 in0.0 mm 0.00 in0.0 mm
06:30 AM 51.9°F11.1°C 48.7°F9.3°C 89% 17.2 mph W27.7 kmh W 30.0 mph48.3 kmh 29.65 in1004.1 mb 0.00 in0.0 mm 0.00 in0.0 mm 0.00 in0.0 mm
06:35 AM 51.9°F11.1°C 48.4°F9.1°C 88% 16.5 mph W26.6 kmh W 25.6 mph41.2 kmh 29.65 in1004.1 mb 0.00 in0.0 mm 0.00 in0.0 mm 0.00 in0.0 mm
06:40 AM 51.9°F11.1°C 48.4°F9.1°C 88% 18.1 mph NW29.1 kmh NW 25.6 mph41.2 kmh 29.65 in1004.1 mb 0.00 in0.0 mm 0.00 in0.0 mm 0.00 in0.0 mm
06:45 AM 51.9°F11.1°C 48.4°F9.1°C 88% 18.9 mph NW30.4 kmh NW 25.6 mph41.2 kmh 29.62 in1003.0 mb 0.00 in0.0 mm 0.00 in0.0 mm 0.00 in0.0 mm
06:50 AM 51.7°F10.9°C 48.3°F9.1°C 88% 17.0 mph NW27.4 kmh NW 17.9 mph28.8 kmh 29.62 in1003.0 mb 0.00 in0.0 mm 0.00 in0.0 mm 0.00 in0.0 mm
06:55 AM 51.7°F10.9°C 48.3°F9.1°C 88% 15.2 mph W24.5 kmh W 17.0 mph27.4 kmh 29.62 in1003.0 mb 0.00 in0.0 mm 0.00 in0.0 mm 0.00 in0.0 mm
07:00 AM 51.7°F10.9°C 48.3°F9.1°C 88% 13.7 mph NNW22.0 kmh NNW 16.1 mph25.9 kmh 29.65 in1004.1 mb 0.00 in0.0 mm 0.00 in0.0 mm 0.00 in0.0 mm
07:05 AM 51.7°F10.9°C 48.3°F9.1°C 88% 12.8 mph NNW20.6 kmh NNW 13.1 mph21.1 kmh 29.65 in1004.1 mb 0.00 in0.0 mm 0.00 in0.0 mm 0.00 in0.0 mm
07:10 AM 51.7°F10.9°C 48.0°F8.9°C 87% 12.5 mph NNW20.1 kmh NNW 13.1 mph21.1 kmh 29.65 in1004.1 mb 0.00 in0.0 mm 0.00 in0.0 mm 0.00 in0.0 mm
07:15 AM 51.5°F10.8°C 48.1°F8.9°C 88% 14.6 mph W23.5 kmh W 20.5 mph33.0 kmh 29.68 in1005.1 mb 0.00 in0.0 mm 0.00 in0.0 mm 0.00 in0.0 mm
07:20 AM 51.3°F10.7°C 47.9°F8.8°C 88% 16.2 mph WSW26.1 kmh WSW 20.5 mph33.0 kmh 29.68 in1005.1 mb 0.00 in0.0 mm 0.00 in0.0 mm 0.00 in0.0 mm
07:25 AM 51.3°F10.7°C 47.9°F8.8°C 88% 16.7 mph WSW26.9 kmh WSW 23.2 mph37.3 kmh 29.68 in1005.1 mb 0.00 in0.0 mm 0.00 in0.0 mm 0.00 in0.0 mm
07:30 AM 51.3°F10.7°C 47.9°F8.8°C 88% 15.2 mph W24.5 kmh W 23.2 mph37.3 kmh 29.65 in1004.1 mb 0.00 in0.0 mm 0.00 in0.0 mm 0.00 in0.0 mm
07:35 AM 51.2°F10.7°C 47.7°F8.7°C 88% 14.0 mph WSW22.5 kmh WSW 14.0 mph22.5 kmh 29.65 in1004.1 mb 0.00 in0.0 mm 0.00 in0.0 mm 0.00 in0.0 mm
07:40 AM 51.2°F10.7°C 47.7°F8.7°C 88% 14.0 mph WSW22.5 kmh WSW 14.0 mph22.5 kmh 29.65 in1004.1 mb 0.00 in0.0 mm 0.00 in0.0 mm 0.00 in0.0 mm
07:45 AM 51.3°F10.7°C 47.9°F8.8°C 88% 14.0 mph WSW22.5 kmh WSW 14.0 mph22.5 kmh 29.68 in1005.1 mb 0.00 in0.0 mm 0.00 in0.0 mm 0.00 in0.0 mm
07:50 AM 51.3°F10.7°C 47.6°F8.7°C 87% 8.0 mph NW12.9 kmh NW 8.0 mph12.9 kmh 29.68 in1005.1 mb 0.00 in0.0 mm 0.00 in0.0 mm 0.00 in0.0 mm
07:55 AM 51.3°F10.7°C 47.6°F8.7°C 87% 8.0 mph NNW12.9 kmh NNW 8.0 mph12.9 kmh 29.68 in1005.1 mb 0.00 in0.0 mm 0.00 in0.0 mm 0.00 in0.0 mm
08:00 AM 51.5°F10.8°C 47.8°F8.8°C 87% 8.4 mph NW13.5 kmh NW 10.1 mph16.3 kmh 29.71 in1006.1 mb 0.00 in0.0 mm 0.00 in0.0 mm 0.00 in0.0 mm
08:05 AM 51.5°F10.8°C 47.8°F8.8°C 87% 9.5 mph NW15.3 kmh NW 13.1 mph21.1 kmh 29.71 in1006.1 mb 0.00 in0.0 mm 0.00 in0.0 mm 0.00 in0.0 mm
08:10 AM 51.7°F10.9°C 48.0°F8.9°C 87% 9.1 mph NW14.6 kmh NW 13.1 mph21.1 kmh 29.71 in1006.1 mb 0.00 in0.0 mm 0.00 in0.0 mm 0.00 in0.0 mm
08:15 AM 51.9°F11.1°C 47.8°F8.8°C 86% 8.4 mph NW13.5 kmh NW 10.7 mph17.2 kmh 29.71 in1006.1 mb 0.00 in0.0 mm 0.00 in0.0 mm 0.00 in0.0 mm
08:20 AM 51.9°F11.1°C 47.8°F8.8°C 86% 8.0 mph NW12.9 kmh NW 8.0 mph12.9 kmh 29.71 in1006.1 mb 0.00 in0.0 mm 0.00 in0.0 mm 0.00 in0.0 mm
08:25 AM 52.1°F11.2°C 48.0°F8.9°C 86% 10.5 mph NW16.9 kmh NW 16.1 mph25.9 kmh 29.71 in1006.1 mb 0.00 in0.0 mm 0.00 in0.0 mm 0.00 in0.0 mm
08:30 AM 52.1°F11.2°C 48.0°F8.9°C 86% 11.0 mph NW17.7 kmh NW 16.1 mph25.9 kmh 29.71 in1006.1 mb 0.00 in0.0 mm 0.00 in0.0 mm 0.00 in0.0 mm
08:35 AM 52.3°F11.3°C 47.9°F8.8°C 85% 11.0 mph WNW17.7 kmh WNW 11.3 mph18.2 kmh 29.71 in1006.1 mb 0.00 in0.0 mm 0.00 in0.0 mm 0.00 in0.0 mm
08:40 AM 52.3°F11.3°C 47.9°F8.8°C 85% 10.4 mph W16.7 kmh W 11.3 mph18.2 kmh 29.71 in1006.1 mb 0.00 in0.0 mm 0.00 in0.0 mm 0.00 in0.0 mm
08:45 AM 52.6°F11.4°C 47.9°F8.8°C 84% 11.4 mph WNW18.3 kmh WNW 15.8 mph25.4 kmh 29.71 in1006.1 mb 0.00 in0.0 mm 0.00 in0.0 mm 0.00 in0.0 mm
08:50 AM 52.6°F11.4°C 47.9°F8.8°C 84% 10.3 mph NW16.6 kmh NW 15.8 mph25.4 kmh 29.71 in1006.1 mb 0.00 in0.0 mm 0.00 in0.0 mm 0.00 in0.0 mm
08:55 AM 52.8°F11.6°C 48.1°F8.9°C 84% 10.2 mph W16.4 kmh W 13.7 mph22.0 kmh 29.71 in1006.1 mb 0.00 in0.0 mm 0.00 in0.0 mm 0.00 in0.0 mm
09:00 AM 53.0°F11.7°C 48.3°F9.1°C 84% 11.6 mph WNW18.7 kmh WNW 13.7 mph22.0 kmh 29.71 in1006.1 mb 0.00 in0.0 mm 0.00 in0.0 mm 0.00 in0.0 mm
09:05 AM 53.0°F11.7°C 48.3°F9.1°C 84% 8.5 mph NW13.7 kmh NW 11.9 mph19.2 kmh 29.71 in1006.1 mb 0.00 in0.0 mm 0.00 in0.0 mm 0.00 in0.0 mm
09:10 AM 53.0°F11.7°C 47.9°F8.8°C 83% 7.5 mph NW12.1 kmh NW 9.5 mph15.3 kmh 29.71 in1006.1 mb 0.00 in0.0 mm 0.00 in0.0 mm 0.00 in0.0 mm
09:15 AM 53.0°F11.7°C 47.9°F8.8°C 83% 9.3 mph NW15.0 kmh NW 14.0 mph22.5 kmh 29.74 in1007.1 mb 0.00 in0.0 mm 0.00 in0.0 mm 0.00 in0.0 mm
09:20 AM 53.0°F11.7°C 47.9°F8.8°C 83% 10.3 mph NW16.6 kmh NW 14.0 mph22.5 kmh 29.74 in1007.1 mb 0.00 in0.0 mm 0.00 in0.0 mm 0.00 in0.0 mm
09:25 AM 52.8°F11.6°C 47.4°F8.6°C 82% 9.3 mph NW15.0 kmh NW 14.3 mph23.0 kmh 29.74 in1007.1 mb 0.00 in0.0 mm 0.00 in0.0 mm 0.00 in0.0 mm
09:30 AM 52.8°F11.6°C 47.4°F8.6°C 82% 10.3 mph WNW16.6 kmh WNW 17.6 mph28.3 kmh 29.74 in1007.1 mb 0.00 in0.0 mm 0.00 in0.0 mm 0.00 in0.0 mm
09:35 AM 53.0°F11.7°C 47.6°F8.7°C 82% 10.3 mph WNW16.6 kmh WNW 17.6 mph28.3 kmh 29.74 in1007.1 mb 0.00 in0.0 mm 0.00 in0.0 mm 0.00 in0.0 mm
09:40 AM 53.0°F11.7°C 47.6°F8.7°C 82% 9.0 mph NW14.5 kmh NW 11.6 mph18.7 kmh 29.74 in1007.1 mb 0.00 in0.0 mm 0.00 in0.0 mm 0.00 in0.0 mm
09:45 AM 53.2°F11.8°C 47.8°F8.8°C 82% 10.3 mph NW16.6 kmh NW 13.4 mph21.6 kmh 29.74 in1007.1 mb 0.00 in0.0 mm 0.00 in0.0 mm 0.00 in0.0 mm
09:50 AM 53.2°F11.8°C 47.8°F8.8°C 82% 7.8 mph WNW12.6 kmh WNW 13.4 mph21.6 kmh 29.74 in1007.1 mb 0.00 in0.0 mm 0.00 in0.0 mm 0.00 in0.0 mm
09:55 AM 53.2°F11.8°C 47.8°F8.8°C 82% 6.5 mph NW10.5 kmh NW 8.6 mph13.8 kmh 29.74 in1007.1 mb 0.00 in0.0 mm 0.00 in0.0 mm 0.00 in0.0 mm
10:00 AM 53.3°F11.8°C 47.6°F8.7°C 81% 7.1 mph NW11.4 kmh NW 10.1 mph16.3 kmh 29.74 in1007.1 mb 0.00 in0.0 mm 0.00 in0.0 mm 0.00 in0.0 mm
10:05 AM 53.5°F11.9°C 47.8°F8.8°C 81% 7.5 mph NW12.1 kmh NW 10.1 mph16.3 kmh 29.74 in1007.1 mb 0.00 in0.0 mm 0.00 in0.0 mm 0.00 in0.0 mm
10:10 AM 53.5°F11.9°C 47.8°F8.8°C 81% 7.7 mph WNW12.4 kmh WNW 10.1 mph16.3 kmh 29.74 in1007.1 mb 0.00 in0.0 mm 0.00 in0.0 mm 0.00 in0.0 mm
10:15 AM 53.9°F12.2°C 47.8°F8.8°C 80% 6.0 mph SW9.7 kmh SW 10.1 mph16.3 kmh 29.74 in1007.1 mb 0.00 in0.0 mm 0.00 in0.0 mm 0.00 in0.0 mm
10:20 AM 54.6°F12.6°C 48.2°F9.0°C 79% 8.3 mph WSW13.4 kmh WSW 13.4 mph21.6 kmh 29.74 in1007.1 mb 0.00 in0.0 mm 0.00 in0.0 mm 0.00 in0.0 mm
10:25 AM 54.6°F12.6°C 48.2°F9.0°C 79% 8.7 mph WSW14.0 kmh WSW 13.4 mph21.6 kmh 29.74 in1007.1 mb 0.00 in0.0 mm 0.00 in0.0 mm 0.00 in0.0 mm
10:30 AM 55.5°F13.1°C 48.7°F9.3°C 78% 9.4 mph WSW15.1 kmh WSW 13.4 mph21.6 kmh 29.74 in1007.1 mb 0.00 in0.0 mm 0.00 in0.0 mm 0.00 in0.0 mm
10:35 AM 55.7°F13.2°C 48.2°F9.0°C 76% 10.7 mph WNW17.2 kmh WNW 14.6 mph23.5 kmh 29.74 in1007.1 mb 0.00 in0.0 mm 0.00 in0.0 mm 0.00 in0.0 mm
10:40 AM 55.5°F13.1°C 47.7°F8.7°C 75% 11.6 mph WNW18.7 kmh WNW 14.6 mph23.5 kmh 29.74 in1007.1 mb 0.00 in0.0 mm 0.00 in0.0 mm 0.00 in0.0 mm
10:45 AM 55.5°F13.1°C 47.3°F8.5°C 74% 11.3 mph WNW18.2 kmh WNW 14.0 mph22.5 kmh 29.77 in1008.1 mb 0.00 in0.0 mm 0.00 in0.0 mm 0.00 in0.0 mm
10:50 AM 55.7°F13.2°C 47.1°F8.4°C 73% 11.8 mph W19.0 kmh W 17.0 mph27.4 kmh 29.77 in1008.1 mb 0.00 in0.0 mm 0.00 in0.0 mm 0.00 in0.0 mm
10:55 AM 55.5°F13.1°C 47.0°F8.3°C 73% 13.2 mph W21.2 kmh W 19.6 mph31.5 kmh 29.77 in1008.1 mb 0.00 in0.0 mm 0.00 in0.0 mm 0.00 in0.0 mm
11:00 AM 55.5°F13.1°C 46.6°F8.1°C 72% 12.9 mph W20.8 kmh W 19.6 mph31.5 kmh 29.77 in1008.1 mb 0.00 in0.0 mm 0.00 in0.0 mm 0.00 in0.0 mm
11:05 AM 55.5°F13.1°C 46.6°F8.1°C 72% 12.6 mph W20.3 kmh W 19.6 mph31.5 kmh 29.77 in1008.1 mb 0.00 in0.0 mm 0.00 in0.0 mm 0.00 in0.0 mm
11:10 AM 55.7°F13.2°C 46.4°F8.0°C 71% 13.2 mph WSW21.2 kmh WSW 17.6 mph28.3 kmh 29.77 in1008.1 mb 0.00 in0.0 mm 0.00 in0.0 mm 0.00 in0.0 mm
11:15 AM 55.7°F13.2°C 46.4°F8.0°C 71% 13.1 mph W21.1 kmh W 17.6 mph28.3 kmh 29.77 in1008.1 mb 0.00 in0.0 mm 0.00 in0.0 mm 0.00 in0.0 mm
11:20 AM 55.5°F13.1°C 45.9°F7.7°C 70% 12.1 mph WNW19.5 kmh WNW 16.4 mph26.4 kmh 29.77 in1008.1 mb 0.00 in0.0 mm 0.00 in0.0 mm 0.00 in0.0 mm
11:25 AM 55.3°F12.9°C 45.3°F7.4°C 69% 11.3 mph W18.2 kmh W 14.3 mph23.0 kmh 29.77 in1008.1 mb 0.00 in0.0 mm 0.00 in0.0 mm 0.00 in0.0 mm
11:30 AM 55.5°F13.1°C 45.9°F7.7°C 70% 9.9 mph W15.9 kmh W 12.5 mph20.1 kmh 29.77 in1008.1 mb 0.00 in0.0 mm 0.00 in0.0 mm 0.00 in0.0 mm
11:35 AM 55.7°F13.2°C 45.7°F7.6°C 69% 11.8 mph W19.0 kmh W 18.7 mph30.1 kmh 29.77 in1008.1 mb 0.00 in0.0 mm 0.00 in0.0 mm 0.00 in0.0 mm
11:40 AM 56.0°F13.3°C 46.0°F7.8°C 69% 14.2 mph W22.9 kmh W 20.2 mph32.5 kmh 29.77 in1008.1 mb 0.00 in0.0 mm 0.00 in0.0 mm 0.00 in0.0 mm
11:45 AM 56.4°F13.6°C 46.0°F7.8°C 68% 14.5 mph W23.3 kmh W 20.2 mph32.5 kmh 29.77 in1008.1 mb 0.00 in0.0 mm 0.00 in0.0 mm 0.00 in0.0 mm
11:50 AM 56.8°F13.8°C 45.9°F7.7°C 67% 13.8 mph WSW22.2 kmh WSW 18.1 mph29.1 kmh 29.77 in1008.1 mb 0.00 in0.0 mm 0.00 in0.0 mm 0.00 in0.0 mm
11:55 AM 56.6°F13.7°C 45.7°F7.6°C 67% 12.5 mph WSW20.1 kmh WSW 18.1 mph29.1 kmh 29.77 in1008.1 mb 0.00 in0.0 mm 0.00 in0.0 mm 0.00 in0.0 mm
12:00 PM 56.6°F13.7°C 45.7°F7.6°C 67% 11.8 mph WSW19.0 kmh WSW 17.9 mph28.8 kmh 29.77 in1008.1 mb 0.00 in0.0 mm 0.00 in0.0 mm 0.00 in0.0 mm
12:05 PM 56.6°F13.7°C 45.3°F7.4°C 66% 10.7 mph WSW17.2 kmh WSW 17.9 mph28.8 kmh 29.77 in1008.1 mb 0.00 in0.0 mm 0.00 in0.0 mm 0.00 in0.0 mm
12:10 PM 56.8°F13.8°C 45.9°F7.7°C 67% 9.1 mph WSW14.6 kmh WSW 14.0 mph22.5 kmh 29.77 in1008.1 mb 0.00 in0.0 mm 0.00 in0.0 mm 0.00 in0.0 mm
12:15 PM 56.9°F13.8°C 45.7°F7.6°C 66% 9.5 mph WSW15.3 kmh WSW 14.0 mph22.5 kmh 29.77 in1008.1 mb 0.00 in0.0 mm 0.00 in0.0 mm 0.00 in0.0 mm
12:20 PM 56.9°F13.8°C 45.7°F7.6°C 66% 11.2 mph WSW18.0 kmh WSW 13.7 mph22.0 kmh 29.77 in1008.1 mb 0.00 in0.0 mm 0.00 in0.0 mm 0.00 in0.0 mm
12:25 PM 57.3°F14.1°C 46.0°F7.8°C 66% 10.3 mph WSW16.6 kmh WSW 13.7 mph22.0 kmh 29.77 in1008.1 mb 0.00 in0.0 mm 0.00 in0.0 mm 0.00 in0.0 mm
12:30 PM 57.3°F14.1°C 45.6°F7.6°C 65% 9.4 mph W15.1 kmh W 11.6 mph18.7 kmh 29.77 in1008.1 mb 0.00 in0.0 mm 0.00 in0.0 mm 0.00 in0.0 mm
12:35 PM 57.3°F14.1°C 45.6°F7.6°C 65% 10.0 mph W16.1 kmh W 16.4 mph26.4 kmh 29.77 in1008.1 mb 0.00 in0.0 mm 0.00 in0.0 mm 0.00 in0.0 mm
12:40 PM 57.1°F13.9°C 45.5°F7.5°C 65% 10.1 mph WNW16.3 kmh WNW 16.4 mph26.4 kmh 29.77 in1008.1 mb 0.00 in0.0 mm 0.00 in0.0 mm 0.00 in0.0 mm
12:45 PM 57.7°F14.3°C 46.0°F7.8°C 65% 9.9 mph W15.9 kmh W 14.6 mph23.5 kmh 29.77 in1008.1 mb 0.00 in0.0 mm 0.00 in0.0 mm 0.00 in0.0 mm
12:50 PM 58.2°F14.6°C 46.1°F7.8°C 64% 9.3 mph W15.0 kmh W 14.3 mph23.0 kmh 29.77 in1008.1 mb 0.00 in0.0 mm 0.00 in0.0 mm 0.00 in0.0 mm
12:55 PM 58.4°F14.7°C 45.8°F7.7°C 63% 10.2 mph WSW16.4 kmh WSW 16.4 mph26.4 kmh 29.77 in1008.1 mb 0.00 in0.0 mm 0.00 in0.0 mm 0.00 in0.0 mm
01:00 PM 58.2°F14.6°C 45.2°F7.3°C 62% 10.3 mph WSW16.6 kmh WSW 16.4 mph26.4 kmh 29.77 in1008.1 mb 0.00 in0.0 mm 0.00 in0.0 mm 0.00 in0.0 mm
01:05 PM 58.4°F14.7°C 45.8°F7.7°C 63% 8.6 mph WSW13.8 kmh WSW 13.4 mph21.6 kmh 29.77 in1008.1 mb 0.00 in0.0 mm 0.00 in0.0 mm 0.00 in0.0 mm
01:10 PM 58.4°F14.7°C 45.4°F7.4°C 62% 8.2 mph WSW13.2 kmh WSW 14.3 mph23.0 kmh 29.77 in1008.1 mb 0.00 in0.0 mm 0.00 in0.0 mm 0.00 in0.0 mm
01:15 PM 58.4°F14.7°C 45.0°F7.2°C 61% 8.9 mph WSW14.3 kmh WSW 14.3 mph23.0 kmh 29.77 in1008.1 mb 0.00 in0.0 mm 0.00 in0.0 mm 0.00 in0.0 mm
01:20 PM 58.4°F14.7°C 45.4°F7.4°C 62% 8.1 mph WSW13.0 kmh WSW 11.6 mph18.7 kmh 29.77 in1008.1 mb 0.00 in0.0 mm 0.00 in0.0 mm 0.00 in0.0 mm
01:25 PM 58.0°F14.4°C 45.1°F7.3°C 62% 9.8 mph WSW15.8 kmh WSW 17.0 mph27.4 kmh 29.77 in1008.1 mb 0.00 in0.0 mm 0.00 in0.0 mm 0.00 in0.0 mm
01:30 PM 57.8°F14.3°C 44.9°F7.2°C 62% 10.1 mph WSW16.3 kmh WSW 17.0 mph27.4 kmh 29.77 in1008.1 mb 0.00 in0.0 mm 0.00 in0.0 mm 0.00 in0.0 mm
01:35 PM 57.8°F14.3°C 44.9°F7.2°C 62% 9.1 mph WSW14.6 kmh WSW 14.3 mph23.0 kmh 29.77 in1008.1 mb 0.00 in0.0 mm 0.00 in0.0 mm 0.00 in0.0 mm
01:40 PM 57.3°F14.1°C 44.4°F6.9°C 62% 7.5 mph WSW12.1 kmh WSW 14.3 mph23.0 kmh 29.77 in1008.1 mb 0.00 in0.0 mm 0.00 in0.0 mm 0.00 in0.0 mm
01:45 PM 57.1°F13.9°C 44.2°F6.8°C 62% 7.3 mph SW11.7 kmh SW 11.3 mph18.2 kmh 29.77 in1008.1 mb 0.00 in0.0 mm 0.00 in0.0 mm 0.00 in0.0 mm
01:50 PM 56.9°F13.8°C 44.0°F6.7°C 62% 7.4 mph SSW11.9 kmh SSW 11.3 mph18.2 kmh 29.77 in1008.1 mb 0.00 in0.0 mm 0.00 in0.0 mm 0.00 in0.0 mm
01:55 PM 56.9°F13.8°C 44.0°F6.7°C 62% 5.4 mph SW8.7 kmh SW 8.3 mph13.4 kmh 29.77 in1008.1 mb 0.00 in0.0 mm 0.00 in0.0 mm 0.00 in0.0 mm
02:00 PM 57.5°F14.2°C 44.5°F6.9°C 62% 6.5 mph SW10.5 kmh SW 9.2 mph14.8 kmh 29.77 in1008.1 mb 0.00 in0.0 mm 0.00 in0.0 mm 0.00 in0.0 mm
02:05 PM 57.7°F14.3°C 44.7°F7.1°C 62% 6.7 mph SW10.8 kmh SW 9.2 mph14.8 kmh 29.77 in1008.1 mb 0.00 in0.0 mm 0.00 in0.0 mm 0.00 in0.0 mm
02:10 PM 57.7°F14.3°C 44.7°F7.1°C 62% 5.6 mph SW9.0 kmh SW 7.7 mph12.4 kmh 29.77 in1008.1 mb 0.00 in0.0 mm 0.00 in0.0 mm 0.00 in0.0 mm
02:15 PM 57.7°F14.3°C 44.7°F7.1°C 62% 5.2 mph SW8.4 kmh SW 7.4 mph11.9 kmh 29.77 in1008.1 mb 0.00 in0.0 mm 0.00 in0.0 mm 0.00 in0.0 mm
02:20 PM 57.5°F14.2°C 44.5°F6.9°C 62% 6.4 mph SW10.3 kmh SW 11.6 mph18.7 kmh 29.77 in1008.1 mb 0.00 in0.0 mm 0.00 in0.0 mm 0.00 in0.0 mm
02:25 PM 57.7°F14.3°C 44.7°F7.1°C 62% 7.5 mph SSW12.1 kmh SSW 11.6 mph18.7 kmh 29.77 in1008.1 mb 0.00 in0.0 mm 0.00 in0.0 mm 0.00 in0.0 mm
02:30 PM 57.7°F14.3°C 44.7°F7.1°C 62% 8.0 mph SW12.9 kmh SW 11.6 mph18.7 kmh 29.77 in1008.1 mb 0.00 in0.0 mm 0.00 in0.0 mm 0.00 in0.0 mm
02:35 PM 57.3°F14.1°C 44.4°F6.9°C 62% 7.6 mph SW12.2 kmh SW 11.6 mph18.7 kmh 29.77 in1008.1 mb 0.00 in0.0 mm 0.00 in0.0 mm 0.00 in0.0 mm
02:40 PM 57.1°F13.9°C 44.6°F7.0°C 63% 7.8 mph SW12.6 kmh SW 11.6 mph18.7 kmh 29.77 in1008.1 mb 0.00 in0.0 mm 0.00 in0.0 mm 0.00 in0.0 mm
02:45 PM 56.9°F13.8°C 44.5°F6.9°C 63% 7.2 mph SW11.6 kmh SW 11.6 mph18.7 kmh 29.77 in1008.1 mb 0.00 in0.0 mm 0.00 in0.0 mm 0.00 in0.0 mm
02:50 PM 56.8°F13.8°C 44.3°F6.8°C 63% 6.2 mph SSW10.0 kmh SSW 11.3 mph18.2 kmh 29.77 in1008.1 mb 0.00 in0.0 mm 0.00 in0.0 mm 0.00 in0.0 mm
02:55 PM 56.6°F13.7°C 44.5°F6.9°C 64% 5.2 mph SW8.4 kmh SW 8.3 mph13.4 kmh 29.77 in1008.1 mb 0.00 in0.0 mm 0.00 in0.0 mm 0.00 in0.0 mm
03:00 PM 56.4°F13.6°C 44.4°F6.9°C 64% 5.2 mph SW8.4 kmh SW 7.4 mph11.9 kmh 29.77 in1008.1 mb 0.00 in0.0 mm 0.00 in0.0 mm 0.00 in0.0 mm
03:05 PM 56.4°F13.6°C 44.8°F7.1°C 65% 5.3 mph SW8.5 kmh SW 8.0 mph12.9 kmh 29.77 in1008.1 mb 0.00 in0.0 mm 0.00 in0.0 mm 0.00 in0.0 mm
03:10 PM 56.4°F13.6°C 44.8°F7.1°C 65% 6.8 mph SSW10.9 kmh SSW 12.8 mph20.6 kmh 29.77 in1008.1 mb 0.00 in0.0 mm 0.00 in0.0 mm 0.00 in0.0 mm
03:15 PM 56.2°F13.4°C 44.6°F7.0°C 65% 6.6 mph SSW10.6 kmh SSW 12.8 mph20.6 kmh 29.74 in1007.1 mb 0.00 in0.0 mm 0.00 in0.0 mm 0.00 in0.0 mm
03:20 PM 56.2°F13.4°C 44.6°F7.0°C 65% 5.3 mph SSW8.5 kmh SSW 8.0 mph12.9 kmh 29.74 in1007.1 mb 0.00 in0.0 mm 0.00 in0.0 mm 0.00 in0.0 mm
03:25 PM 56.2°F13.4°C 45.0°F7.2°C 66% 6.0 mph SSW9.7 kmh SSW 8.3 mph13.4 kmh 29.74 in1007.1 mb 0.00 in0.0 mm 0.00 in0.0 mm 0.00 in0.0 mm
03:30 PM 56.4°F13.6°C 45.2°F7.3°C 66% 6.3 mph SSW10.1 kmh SSW 8.3 mph13.4 kmh 29.74 in1007.1 mb 0.00 in0.0 mm 0.00 in0.0 mm 0.00 in0.0 mm
03:35 PM 56.4°F13.6°C 45.6°F7.6°C 67% 6.1 mph S9.8 kmh S 7.7 mph12.4 kmh 29.74 in1007.1 mb 0.00 in0.0 mm 0.00 in0.0 mm 0.00 in0.0 mm
03:40 PM 56.4°F13.6°C 45.6°F7.6°C 67% 6.7 mph S10.8 kmh S 11.3 mph18.2 kmh 29.74 in1007.1 mb 0.00 in0.0 mm 0.00 in0.0 mm 0.00 in0.0 mm
03:45 PM 56.4°F13.6°C 45.6°F7.6°C 67% 6.5 mph SSW10.5 kmh SSW 11.3 mph18.2 kmh 29.74 in1007.1 mb 0.00 in0.0 mm 0.00 in0.0 mm 0.00 in0.0 mm
03:50 PM 56.4°F13.6°C 45.6°F7.6°C 67% 8.3 mph SSW13.4 kmh SSW 16.4 mph26.4 kmh 29.74 in1007.1 mb 0.00 in0.0 mm 0.00 in0.0 mm 0.00 in0.0 mm
03:55 PM 56.4°F13.6°C 46.0°F7.8°C 68% 9.9 mph SSW15.9 kmh SSW 16.4 mph26.4 kmh 29.74 in1007.1 mb 0.00 in0.0 mm 0.00 in0.0 mm 0.00 in0.0 mm
04:00 PM 56.0°F13.3°C 45.6°F7.6°C 68% 8.3 mph S13.4 kmh S 12.5 mph20.1 kmh 29.74 in1007.1 mb 0.00 in0.0 mm 0.00 in0.0 mm 0.00 in0.0 mm
04:05 PM 56.0°F13.3°C 45.6°F7.6°C 68% 8.1 mph SSW13.0 kmh SSW 12.5 mph20.1 kmh 29.74 in1007.1 mb 0.00 in0.0 mm 0.00 in0.0 mm 0.00 in0.0 mm
04:10 PM 56.0°F13.3°C 46.0°F7.8°C 69% 9.0 mph S14.5 kmh S 12.5 mph20.1 kmh 29.74 in1007.1 mb 0.00 in0.0 mm 0.00 in0.0 mm 0.00 in0.0 mm
04:15 PM 55.8°F13.2°C 46.2°F7.9°C 70% 7.9 mph SSW12.7 kmh SSW 12.5 mph20.1 kmh 29.74 in1007.1 mb 0.00 in0.0 mm 0.00 in0.0 mm 0.00 in0.0 mm
04:20 PM 55.7°F13.2°C 46.0°F7.8°C 70% 7.1 mph SW11.4 kmh SW 9.5 mph15.3 kmh 29.74 in1007.1 mb 0.00 in0.0 mm 0.00 in0.0 mm 0.00 in0.0 mm
04:25 PM 55.7°F13.2°C 46.0°F7.8°C 70% 6.3 mph SSW10.1 kmh SSW 9.5 mph15.3 kmh 29.74 in1007.1 mb 0.00 in0.0 mm 0.00 in0.0 mm 0.00 in0.0 mm
04:30 PM 55.7°F13.2°C 46.4°F8.0°C 71% 6.9 mph SSW11.1 kmh SSW 11.3 mph18.2 kmh 29.71 in1006.1 mb 0.00 in0.0 mm 0.00 in0.0 mm 0.00 in0.0 mm
04:35 PM 55.7°F13.2°C 46.4°F8.0°C 71% 7.8 mph SSW12.6 kmh SSW 11.3 mph18.2 kmh 29.71 in1006.1 mb 0.00 in0.0 mm 0.00 in0.0 mm 0.00 in0.0 mm
04:40 PM 55.5°F13.1°C 46.2°F7.9°C 71% 7.8 mph SSW12.6 kmh SSW 11.6 mph18.7 kmh 29.71 in1006.1 mb 0.00 in0.0 mm 0.00 in0.0 mm 0.00 in0.0 mm
04:45 PM 55.5°F13.1°C 46.2°F7.9°C 71% 7.3 mph SSW11.7 kmh SSW 11.6 mph18.7 kmh 29.71 in1006.1 mb 0.00 in0.0 mm 0.00 in0.0 mm 0.00 in0.0 mm
04:50 PM 55.5°F13.1°C 46.6°F8.1°C 72% 6.1 mph S9.8 kmh S 8.3 mph13.4 kmh 29.71 in1006.1 mb 0.00 in0.0 mm 0.00 in0.0 mm 0.00 in0.0 mm
04:55 PM 55.5°F13.1°C 46.6°F8.1°C 72% 6.6 mph S10.6 kmh S 10.4 mph16.7 kmh 29.71 in1006.1 mb 0.00 in0.0 mm 0.00 in0.0 mm 0.00 in0.0 mm
05:00 PM 55.3°F12.9°C 46.4°F8.0°C 72% 6.4 mph S10.3 kmh S 10.4 mph16.7 kmh 29.71 in1006.1 mb 0.00 in0.0 mm 0.00 in0.0 mm 0.00 in0.0 mm
05:05 PM 55.3°F12.9°C 46.4°F8.0°C 72% 5.8 mph S9.3 kmh S 8.3 mph13.4 kmh 29.71 in1006.1 mb 0.00 in0.0 mm 0.00 in0.0 mm 0.00 in0.0 mm
05:10 PM 55.3°F12.9°C 46.8°F8.2°C 73% 5.9 mph S9.5 kmh S 9.5 mph15.3 kmh 29.71 in1006.1 mb 0.00 in0.0 mm 0.00 in0.0 mm 0.00 in0.0 mm
05:15 PM 55.3°F12.9°C 46.8°F8.2°C 73% 8.4 mph S13.5 kmh S 13.4 mph21.6 kmh 29.71 in1006.1 mb 0.00 in0.0 mm 0.00 in0.0 mm 0.00 in0.0 mm
05:20 PM 55.5°F13.1°C 47.0°F8.3°C 73% 9.5 mph S15.3 kmh S 13.4 mph21.6 kmh 29.71 in1006.1 mb 0.00 in0.0 mm 0.00 in0.0 mm 0.00 in0.0 mm
05:25 PM 55.5°F13.1°C 47.3°F8.5°C 74% 11.1 mph SSW17.9 kmh SSW 22.0 mph35.4 kmh 29.71 in1006.1 mb 0.00 in0.0 mm 0.00 in0.0 mm 0.00 in0.0 mm
05:30 PM 55.5°F13.1°C 47.3°F8.5°C 74% 11.9 mph SSW19.2 kmh SSW 22.0 mph35.4 kmh 29.71 in1006.1 mb 0.00 in0.0 mm 0.00 in0.0 mm 0.00 in0.0 mm
05:35 PM 55.5°F13.1°C 47.3°F8.5°C 74% 11.7 mph SSW18.8 kmh SSW 16.4 mph26.4 kmh 29.71 in1006.1 mb 0.00 in0.0 mm 0.00 in0.0 mm 0.00 in0.0 mm
05:40 PM 55.7°F13.2°C 47.5°F8.6°C 74% 10.8 mph SSW17.4 kmh SSW 17.0 mph27.4 kmh 29.71 in1006.1 mb 0.00 in0.0 mm 0.00 in0.0 mm 0.00 in0.0 mm
05:45 PM 55.7°F13.2°C 47.5°F8.6°C 74% 8.2 mph S13.2 kmh S 17.0 mph27.4 kmh 29.68 in1005.1 mb 0.00 in0.0 mm 0.00 in0.0 mm 0.00 in0.0 mm
05:50 PM 55.7°F13.2°C 47.5°F8.6°C 74% 6.8 mph SSW10.9 kmh SSW 10.4 mph16.7 kmh 29.68 in1005.1 mb 0.00 in0.0 mm 0.00 in0.0 mm 0.00 in0.0 mm
05:55 PM 55.7°F13.2°C 47.5°F8.6°C 74% 6.9 mph S11.1 kmh S 10.4 mph16.7 kmh 29.68 in1005.1 mb 0.00 in0.0 mm 0.00 in0.0 mm 0.00 in0.0 mm
06:00 PM 55.7°F13.2°C 47.9°F8.8°C 75% 6.8 mph S10.9 kmh S 9.5 mph15.3 kmh 29.68 in1005.1 mb 0.00 in0.0 mm 0.00 in0.0 mm 0.00 in0.0 mm
06:05 PM 55.7°F13.2°C 47.9°F8.8°C 75% 8.4 mph S13.5 kmh S 14.3 mph23.0 kmh 29.68 in1005.1 mb 0.00 in0.0 mm 0.00 in0.0 mm 0.00 in0.0 mm
06:10 PM 55.7°F13.2°C 47.9°F8.8°C 75% 8.6 mph S13.8 kmh S 14.3 mph23.0 kmh 29.68 in1005.1 mb 0.00 in0.0 mm 0.00 in0.0 mm 0.00 in0.0 mm
06:15 PM 55.8°F13.2°C 48.0°F8.9°C 75% 7.4 mph SSW11.9 kmh SSW 10.4 mph16.7 kmh 29.68 in1005.1 mb 0.00 in0.0 mm 0.00 in0.0 mm 0.00 in0.0 mm
06:20 PM 56.0°F13.3°C 48.2°F9.0°C 75% 8.4 mph SSW13.5 kmh SSW 10.4 mph16.7 kmh 29.68 in1005.1 mb 0.00 in0.0 mm 0.00 in0.0 mm 0.00 in0.0 mm
06:25 PM 55.8°F13.2°C 48.4°F9.1°C 76% 10.2 mph S16.4 kmh S 17.6 mph28.3 kmh 29.68 in1005.1 mb 0.00 in0.0 mm 0.00 in0.0 mm 0.00 in0.0 mm
06:30 PM 55.8°F13.2°C 48.4°F9.1°C 76% 11.8 mph S19.0 kmh S 17.6 mph28.3 kmh 29.65 in1004.1 mb 0.00 in0.0 mm 0.00 in0.0 mm 0.00 in0.0 mm
06:35 PM 55.8°F13.2°C 48.7°F9.3°C 77% 11.7 mph S18.8 kmh S 17.0 mph27.4 kmh 29.65 in1004.1 mb 0.00 in0.0 mm 0.00 in0.0 mm 0.00 in0.0 mm
06:40 PM 55.8°F13.2°C 48.7°F9.3°C 77% 11.8 mph S19.0 kmh S 20.5 mph33.0 kmh 29.65 in1004.1 mb 0.00 in0.0 mm 0.00 in0.0 mm 0.00 in0.0 mm
06:45 PM 55.8°F13.2°C 49.1°F9.5°C 78% 10.5 mph SSW16.9 kmh SSW 20.5 mph33.0 kmh 29.65 in1004.1 mb 0.00 in0.0 mm 0.00 in0.0 mm 0.00 in0.0 mm
06:50 PM 55.7°F13.2°C 48.9°F9.4°C 78% 9.3 mph SSW15.0 kmh SSW 16.1 mph25.9 kmh 29.65 in1004.1 mb 0.00 in0.0 mm 0.00 in0.0 mm 0.00 in0.0 mm
06:55 PM 55.5°F13.1°C 49.1°F9.5°C 79% 10.0 mph S16.1 kmh S 16.4 mph26.4 kmh 29.65 in1004.1 mb 0.04 in1.0 mm 0.48 in12.2 mm 0.04 in1.0 mm
07:00 PM 55.3°F12.9°C 48.9°F9.4°C 79% 10.2 mph S16.4 kmh S 16.4 mph26.4 kmh 29.65 in1004.1 mb 0.04 in1.0 mm 0.00 in0.0 mm 0.04 in1.0 mm
07:05 PM 55.3°F12.9°C 48.9°F9.4°C 79% 9.9 mph S15.9 kmh S 16.4 mph26.4 kmh 29.65 in1004.1 mb 0.04 in1.0 mm 0.00 in0.0 mm 0.04 in1.0 mm
07:10 PM 55.1°F12.8°C 49.1°F9.5°C 80% 8.9 mph S14.3 kmh S 11.3 mph18.2 kmh 29.65 in1004.1 mb 0.04 in1.0 mm 0.00 in0.0 mm 0.04 in1.0 mm
07:15 PM 55.1°F12.8°C 49.1°F9.5°C 80% 8.6 mph S13.8 kmh S 13.1 mph21.1 kmh 29.62 in1003.0 mb 0.04 in1.0 mm 0.00 in0.0 mm 0.04 in1.0 mm
07:20 PM 55.1°F12.8°C 49.1°F9.5°C 80% 8.7 mph S14.0 kmh S 13.1 mph21.1 kmh 29.62 in1003.0 mb 0.04 in1.0 mm 0.00 in0.0 mm 0.04 in1.0 mm
07:25 PM 55.1°F12.8°C 49.4°F9.7°C 81% 11.3 mph SSW18.2 kmh SSW 21.4 mph34.4 kmh 29.62 in1003.0 mb 0.04 in1.0 mm 0.00 in0.0 mm 0.04 in1.0 mm
07:30 PM 55.3°F12.9°C 49.6°F9.8°C 81% 13.4 mph SSW21.6 kmh SSW 21.4 mph34.4 kmh 29.62 in1003.0 mb 0.04 in1.0 mm 0.00 in0.0 mm 0.04 in1.0 mm
07:35 PM 55.3°F12.9°C 49.6°F9.8°C 81% 11.7 mph S18.8 kmh S 16.1 mph25.9 kmh 29.62 in1003.0 mb 0.04 in1.0 mm 0.00 in0.0 mm 0.04 in1.0 mm
07:40 PM 55.5°F13.1°C 49.8°F9.9°C 81% 12.9 mph S20.8 kmh S 17.6 mph28.3 kmh 29.62 in1003.0 mb 0.04 in1.0 mm 0.00 in0.0 mm 0.04 in1.0 mm
07:45 PM 55.7°F13.2°C 49.9°F9.9°C 81% 15.1 mph S24.3 kmh S 20.2 mph32.5 kmh 29.59 in1002.0 mb 0.04 in1.0 mm 0.00 in0.0 mm 0.04 in1.0 mm
07:50 PM 55.7°F13.2°C 49.9°F9.9°C 81% 12.4 mph S20.0 kmh S 20.5 mph33.0 kmh 29.59 in1002.0 mb 0.00 in0.0 mm 0.00 in0.0 mm 0.04 in1.0 mm
07:55 PM 55.7°F13.2°C 50.3°F10.2°C 82% 11.4 mph S18.3 kmh S 20.5 mph33.0 kmh 29.59 in1002.0 mb 0.00 in0.0 mm 0.00 in0.0 mm 0.04 in1.0 mm
08:00 PM 55.7°F13.2°C 50.3°F10.2°C 82% 13.4 mph SSW21.6 kmh SSW 20.2 mph32.5 kmh 29.59 in1002.0 mb 0.00 in0.0 mm 0.00 in0.0 mm 0.04 in1.0 mm
08:05 PM 55.7°F13.2°C 50.3°F10.2°C 82% 13.8 mph SSW22.2 kmh SSW 22.6 mph36.4 kmh 29.59 in1002.0 mb 0.00 in0.0 mm 0.00 in0.0 mm 0.04 in1.0 mm
08:10 PM 55.7°F13.2°C 50.3°F10.2°C 82% 13.2 mph S21.2 kmh S 22.6 mph36.4 kmh 29.59 in1002.0 mb 0.00 in0.0 mm 0.00 in0.0 mm 0.04 in1.0 mm
08:15 PM 55.5°F13.1°C 50.4°F10.2°C 83% 13.4 mph S21.6 kmh S 20.8 mph33.5 kmh 29.59 in1002.0 mb 0.00 in0.0 mm 0.00 in0.0 mm 0.04 in1.0 mm
08:20 PM 55.3°F12.9°C 50.2°F10.1°C 83% 14.4 mph SSW23.2 kmh SSW 20.8 mph33.5 kmh 29.59 in1002.0 mb 0.00 in0.0 mm 0.00 in0.0 mm 0.04 in1.0 mm
08:25 PM 55.1°F12.8°C 50.1°F10.1°C 83% 15.2 mph S24.5 kmh S 20.5 mph33.0 kmh 29.59 in1002.0 mb 0.00 in0.0 mm 0.00 in0.0 mm 0.04 in1.0 mm
08:30 PM 55.1°F12.8°C 50.1°F10.1°C 83% 14.6 mph S23.5 kmh S 20.5 mph33.0 kmh 29.56 in1001.0 mb 0.00 in0.0 mm 0.00 in0.0 mm 0.04 in1.0 mm
08:35 PM 55.0°F12.8°C 50.2°F10.1°C 84% 13.1 mph S21.1 kmh S 17.0 mph27.4 kmh 29.56 in1001.0 mb 0.00 in0.0 mm 0.00 in0.0 mm 0.04 in1.0 mm
08:40 PM 55.0°F12.8°C 50.5°F10.3°C 85% 14.5 mph S23.3 kmh S 17.0 mph27.4 kmh 29.56 in1001.0 mb 0.00 in0.0 mm 0.00 in0.0 mm 0.04 in1.0 mm
08:45 PM 54.8°F12.7°C 50.3°F10.2°C 85% 14.8 mph SSW23.8 kmh SSW 16.7 mph26.9 kmh 29.56 in1001.0 mb 0.00 in0.0 mm 0.00 in0.0 mm 0.04 in1.0 mm
08:50 PM 54.8°F12.7°C 50.3°F10.2°C 85% 11.9 mph SSW19.2 kmh SSW 16.7 mph26.9 kmh 29.56 in1001.0 mb 0.00 in0.0 mm 0.00 in0.0 mm 0.04 in1.0 mm
08:55 PM 54.8°F12.7°C 50.7°F10.4°C 86% 11.6 mph S18.7 kmh S 20.8 mph33.5 kmh 29.56 in1001.0 mb 0.00 in0.0 mm 0.00 in0.0 mm 0.04 in1.0 mm
09:00 PM 54.8°F12.7°C 50.7°F10.4°C 86% 13.3 mph S21.4 kmh S 20.8 mph33.5 kmh 29.56 in1001.0 mb 0.00 in0.0 mm 0.00 in0.0 mm 0.04 in1.0 mm
09:05 PM 55.0°F12.8°C 51.2°F10.7°C 87% 14.7 mph S23.7 kmh S 20.8 mph33.5 kmh 29.56 in1001.0 mb 0.00 in0.0 mm 0.00 in0.0 mm 0.04 in1.0 mm
09:10 PM 55.1°F12.8°C 51.3°F10.7°C 87% 14.7 mph S23.7 kmh S 17.3 mph27.8 kmh 29.56 in1001.0 mb 0.00 in0.0 mm 0.00 in0.0 mm 0.04 in1.0 mm
09:15 PM 55.3°F12.9°C 51.8°F11.0°C 88% 16.2 mph SSW26.1 kmh SSW 21.1 mph34.0 kmh 29.56 in1001.0 mb 0.00 in0.0 mm 0.00 in0.0 mm 0.04 in1.0 mm
09:20 PM 55.5°F13.1°C 52.0°F11.1°C 88% 16.4 mph SSW26.4 kmh SSW 21.1 mph34.0 kmh 29.56 in1001.0 mb 0.00 in0.0 mm 0.00 in0.0 mm 0.04 in1.0 mm
09:25 PM 55.7°F13.2°C 52.5°F11.4°C 89% 15.6 mph SSW25.1 kmh SSW 19.3 mph31.1 kmh 29.56 in1001.0 mb 0.00 in0.0 mm 0.00 in0.0 mm 0.04 in1.0 mm
09:30 PM 55.7°F13.2°C 52.5°F11.4°C 89% 15.0 mph SSW24.1 kmh SSW 19.3 mph31.1 kmh 29.56 in1001.0 mb 0.00 in0.0 mm 0.00 in0.0 mm 0.04 in1.0 mm
09:35 PM 55.8°F13.2°C 52.7°F11.5°C 89% 14.5 mph S23.3 kmh S 18.7 mph30.1 kmh 29.56 in1001.0 mb 0.00 in0.0 mm 0.00 in0.0 mm 0.04 in1.0 mm
09:40 PM 55.8°F13.2°C 52.7°F11.5°C 89% 14.7 mph S23.7 kmh S 19.6 mph31.5 kmh 29.56 in1001.0 mb 0.00 in0.0 mm 0.00 in0.0 mm 0.04 in1.0 mm
09:45 PM 56.0°F13.3°C 52.8°F11.6°C 89% 13.0 mph SSW20.9 kmh SSW 19.6 mph31.5 kmh 29.53 in1000.0 mb 0.00 in0.0 mm 0.00 in0.0 mm 0.04 in1.0 mm
09:50 PM 56.0°F13.3°C 52.8°F11.6°C 89% 13.3 mph SSW21.4 kmh SSW 17.3 mph27.8 kmh 29.53 in1000.0 mb 0.00 in0.0 mm 0.00 in0.0 mm 0.04 in1.0 mm
09:55 PM 56.0°F13.3°C 53.1°F11.7°C 90% 11.3 mph S18.2 kmh S 17.3 mph27.8 kmh 29.53 in1000.0 mb 0.04 in1.0 mm 0.48 in12.2 mm 0.08 in2.0 mm
10:00 PM 56.2°F13.4°C 53.3°F11.8°C 90% 11.2 mph SSW18.0 kmh SSW 17.3 mph27.8 kmh 29.53 in1000.0 mb 0.04 in1.0 mm 0.00 in0.0 mm 0.08 in2.0 mm
10:05 PM 56.4°F13.6°C 53.5°F11.9°C 90% 12.6 mph SSW20.3 kmh SSW 14.3 mph23.0 kmh 29.53 in1000.0 mb 0.04 in1.0 mm 0.00 in0.0 mm 0.08 in2.0 mm
10:10 PM 56.6°F13.7°C 53.7°F12.1°C 90% 14.0 mph SSW22.5 kmh SSW 14.6 mph23.5 kmh 29.53 in1000.0 mb 0.04 in1.0 mm 0.00 in0.0 mm 0.08 in2.0 mm
10:15 PM 56.8°F13.8°C 54.2°F12.3°C 91% 13.2 mph S21.2 kmh S 14.6 mph23.5 kmh 29.53 in1000.0 mb 0.04 in1.0 mm 0.00 in0.0 mm 0.08 in2.0 mm
10:20 PM 56.8°F13.8°C 54.2°F12.3°C 91% 11.0 mph SSW17.7 kmh SSW 15.8 mph25.4 kmh 29.53 in1000.0 mb 0.04 in1.0 mm 0.00 in0.0 mm 0.08 in2.0 mm
10:25 PM 56.9°F13.8°C 54.3°F12.4°C 91% 8.4 mph SSW13.5 kmh SSW 15.8 mph25.4 kmh 29.53 in1000.0 mb 0.04 in1.0 mm 0.00 in0.0 mm 0.08 in2.0 mm
10:30 PM 56.9°F13.8°C 54.3°F12.4°C 91% 8.5 mph S13.7 kmh S 12.8 mph20.6 kmh 29.53 in1000.0 mb 0.08 in2.0 mm 0.48 in12.2 mm 0.12 in3.0 mm
10:35 PM 57.1°F13.9°C 54.8°F12.7°C 92% 9.7 mph S15.6 kmh S 12.8 mph20.6 kmh 29.53 in1000.0 mb 0.08 in2.0 mm 0.00 in0.0 mm 0.12 in3.0 mm
10:40 PM 57.3°F14.1°C 55.0°F12.8°C 92% 9.6 mph SW15.4 kmh SW 14.0 mph22.5 kmh 29.53 in1000.0 mb 0.08 in2.0 mm 0.00 in0.0 mm 0.12 in3.0 mm
10:45 PM 57.3°F14.1°C 55.0°F12.8°C 92% 7.4 mph SSW11.9 kmh SSW 14.0 mph22.5 kmh 29.53 in1000.0 mb 0.08 in2.0 mm 0.00 in0.0 mm 0.12 in3.0 mm
10:50 PM 57.3°F14.1°C 55.0°F12.8°C 92% 5.9 mph SW9.5 kmh SW 9.8 mph15.8 kmh 29.53 in1000.0 mb 0.08 in2.0 mm 0.00 in0.0 mm 0.12 in3.0 mm
10:55 PM 57.1°F13.9°C 54.8°F12.7°C 92% 5.3 mph SW8.5 kmh SW 10.7 mph17.2 kmh 29.53 in1000.0 mb 0.04 in1.0 mm 0.00 in0.0 mm 0.12 in3.0 mm
11:00 PM 57.1°F13.9°C 54.8°F12.7°C 92% 5.2 mph SW8.4 kmh SW 10.7 mph17.2 kmh 29.53 in1000.0 mb 0.04 in1.0 mm 0.00 in0.0 mm 0.12 in3.0 mm
11:05 PM 56.9°F13.8°C 54.6°F12.6°C 92% 5.8 mph SSW9.3 kmh SSW 7.7 mph12.4 kmh 29.53 in1000.0 mb 0.04 in1.0 mm 0.00 in0.0 mm 0.12 in3.0 mm
11:10 PM 56.8°F13.8°C 54.5°F12.5°C 92% 6.6 mph S10.6 kmh S 9.8 mph15.8 kmh 29.53 in1000.0 mb 0.04 in1.0 mm 0.00 in0.0 mm 0.12 in3.0 mm
11:15 PM 56.4°F13.6°C 53.8°F12.1°C 91% 7.7 mph SSW12.4 kmh SSW 11.3 mph18.2 kmh 29.53 in1000.0 mb 0.04 in1.0 mm 0.00 in0.0 mm 0.12 in3.0 mm
11:20 PM 56.0°F13.3°C 53.4°F11.9°C 91% 8.1 mph SSW13.0 kmh SSW 11.3 mph18.2 kmh 29.53 in1000.0 mb 0.04 in1.0 mm 0.00 in0.0 mm 0.12 in3.0 mm
11:25 PM 55.8°F13.2°C 53.3°F11.8°C 91% 7.8 mph SSW12.6 kmh SSW 11.3 mph18.2 kmh 29.53 in1000.0 mb 0.04 in1.0 mm 0.00 in0.0 mm 0.12 in3.0 mm
11:30 PM 55.5°F13.1°C 52.6°F11.4°C 90% 8.5 mph SSW13.7 kmh SSW 13.7 mph22.0 kmh 29.53 in1000.0 mb 0.00 in0.0 mm 0.00 in0.0 mm 0.12 in3.0 mm
11:35 PM 55.5°F13.1°C 52.6°F11.4°C 90% 8.8 mph SSW14.2 kmh SSW 13.7 mph22.0 kmh 29.53 in1000.0 mb 0.00 in0.0 mm 0.00 in0.0 mm 0.12 in3.0 mm
11:40 PM 55.1°F12.8°C 51.9°F11.1°C 89% 7.1 mph SW11.4 kmh SW 13.1 mph21.1 kmh 29.53 in1000.0 mb 0.00 in0.0 mm 0.00 in0.0 mm 0.12 in3.0 mm
11:45 PM 55.1°F12.8°C 51.9°F11.1°C 89% 7.1 mph SSW11.4 kmh SSW 9.8 mph15.8 kmh 29.53 in1000.0 mb 0.00 in0.0 mm 0.00 in0.0 mm 0.12 in3.0 mm
11:50 PM 55.1°F12.8°C 51.9°F11.1°C 89% 7.5 mph S12.1 kmh S 9.2 mph14.8 kmh 29.53 in1000.0 mb 0.00 in0.0 mm 0.00 in0.0 mm 0.12 in3.0 mm
11:55 PM 55.1°F12.8°C 51.9°F11.1°C 89% 7.9 mph SSW12.7 kmh SSW 10.4 mph16.7 kmh 29.53 in1000.0 mb 0.00 in0.0 mm 0.00 in0.0 mm 0.12 in3.0 mm